createdAt,value
2017-07-24T09:56:11.504Z,45.6
2017-07-24T09:57:12.880Z,45.2
2017-07-24T09:58:34.402Z,45.1
2017-07-24T09:59:35.793Z,45.1
2017-07-24T10:00:57.324Z,45.2
2017-07-24T10:01:58.703Z,45.1
2017-07-24T10:03:20.200Z,45.3
2017-07-24T10:04:21.577Z,45.3
2017-07-24T10:05:43.079Z,45.2
2017-07-24T10:06:44.570Z,45.3
2017-07-24T10:08:06.077Z,45.3
2017-07-24T10:09:07.461Z,45.4
2017-07-24T10:10:28.965Z,45.6
2017-07-24T10:11:30.350Z,45.8
2017-07-24T10:12:51.867Z,48.0
2017-07-24T10:13:53.373Z,44.5
2017-07-24T10:15:15.075Z,45.2
2017-07-24T10:16:16.454Z,45.1
2017-07-24T10:17:38.967Z,45.2
2017-07-24T10:18:40.356Z,45.2
2017-07-24T10:20:01.854Z,45.6
2017-07-24T10:21:03.240Z,45.6
2017-07-24T10:22:24.766Z,46.0
2017-07-24T10:23:26.165Z,45.5
2017-07-24T10:24:47.654Z,45.2
2017-07-24T10:25:49.042Z,45.2
2017-07-24T10:27:10.569Z,45.5
2017-07-24T10:28:11.968Z,45.2
2017-07-24T10:29:33.958Z,44.6
2017-07-24T10:30:35.355Z,44.7
2017-07-24T10:31:56.864Z,45.1
2017-07-24T10:32:58.246Z,45.9
2017-07-24T10:34:19.744Z,45.3
2017-07-24T10:35:21.126Z,45.9
2017-07-24T10:36:42.615Z,45.3
2017-07-24T10:37:44.000Z,45.6
2017-07-24T10:39:05.569Z,44.9
2017-07-24T10:40:06.945Z,44.5
2017-07-24T10:41:28.439Z,44.3
2017-07-24T10:42:29.836Z,43.9
2017-07-24T10:44:23.414Z,45.1
2017-07-24T10:45:24.850Z,47.0
2017-07-24T10:46:46.381Z,47.6
2017-07-24T10:47:47.773Z,48.1
2017-07-24T10:49:09.292Z,48.3
2017-07-24T10:50:10.670Z,48.2
2017-07-24T10:51:12.072Z,48.8
2017-07-24T10:52:13.464Z,49.0
2017-07-24T10:53:14.856Z,49.2
2017-07-24T10:54:16.258Z,48.9
2017-07-24T10:55:17.698Z,48.6
2017-07-24T10:56:19.083Z,48.7
2017-07-24T10:57:20.466Z,48.9
2017-07-24T10:58:21.849Z,49.2
2017-07-24T11:10:11.340Z,48.4
2017-07-24T11:11:12.740Z,47.9
2017-07-24T11:12:34.296Z,48.1
2017-07-24T11:13:35.700Z,48.1
2017-07-24T11:14:37.090Z,48.4
2017-07-24T11:15:38.482Z,48.1
2017-07-24T11:16:39.958Z,47.9
2017-07-24T11:17:41.335Z,47.8
2017-07-24T11:18:42.719Z,47.9
2017-07-24T11:19:44.123Z,47.8
2017-07-24T11:20:45.519Z,47.6
2017-07-24T11:21:46.896Z,47.0
2017-07-24T11:22:48.354Z,47.5
2017-07-24T11:23:49.748Z,47.8
2017-07-24T11:24:51.156Z,47.6
2017-07-24T11:25:52.532Z,47.0
2017-07-24T11:26:53.932Z,47.3
2017-07-24T11:27:55.325Z,47.3
2017-07-24T11:28:56.707Z,47.3
2017-07-24T11:29:58.099Z,47.1
2017-07-24T11:30:59.480Z,47.8
2017-07-24T11:32:00.865Z,47.5
2017-07-24T11:33:02.262Z,47.7
2017-07-24T11:34:03.644Z,47.5
2017-07-24T11:35:05.060Z,47.5
2017-07-24T11:36:06.436Z,47.4
2017-07-24T11:37:07.819Z,47.4
2017-07-24T11:38:09.226Z,47.3
2017-07-24T11:39:10.610Z,47.1
2017-07-24T11:40:12.036Z,47.3
2017-07-24T11:41:13.410Z,47.0
2017-07-24T11:42:14.798Z,47.5
2017-07-24T11:43:16.200Z,47.4
2017-07-24T11:44:17.581Z,47.8
2017-07-24T11:45:18.978Z,47.7
2017-07-24T11:46:20.363Z,47.5
2017-07-24T11:47:21.745Z,47.6
2017-07-24T11:48:23.136Z,47.7
2017-07-24T11:49:24.519Z,47.7
2017-07-24T11:50:25.904Z,47.7
2017-07-24T11:51:27.293Z,47.7
2017-07-24T11:52:28.709Z,47.4
2017-07-24T11:53:30.093Z,47.5
2017-07-24T11:54:31.484Z,47.7
2017-07-24T11:55:32.871Z,47.6
2017-07-24T11:56:34.252Z,47.7
2017-07-24T11:57:35.659Z,47.6
2017-07-24T11:58:37.046Z,47.5
2017-07-24T11:59:38.432Z,47.7
2017-07-24T12:00:39.822Z,47.7
2017-07-24T12:01:41.210Z,47.6
2017-07-24T12:02:42.625Z,47.5
2017-07-24T12:03:44.010Z,47.5
2017-07-24T12:04:45.401Z,47.3
2017-07-24T12:05:46.780Z,47.2
2017-07-24T12:06:48.167Z,47.1
2017-07-24T12:07:49.570Z,47.0
2017-07-24T12:08:51.061Z,47.0
2017-07-24T12:09:52.468Z,47.2
2017-07-24T12:10:53.850Z,46.9
2017-07-24T12:11:55.243Z,47.1
2017-07-24T12:12:56.646Z,47.1
2017-07-24T12:13:58.035Z,47.3
2017-07-24T12:14:59.437Z,47.2
2017-07-24T12:16:00.848Z,47.2
2017-07-24T12:17:02.241Z,47.2
2017-07-24T12:18:03.632Z,47.2
2017-07-24T12:19:05.033Z,47.3
2017-07-24T12:20:06.495Z,47.5
2017-07-24T12:21:07.885Z,47.4
2017-07-24T12:22:09.292Z,47.4
2017-07-24T12:23:10.821Z,47.5
2017-07-24T12:24:12.275Z,47.3
2017-07-24T12:25:13.713Z,47.4
2017-07-24T12:26:15.158Z,47.3
2017-07-24T12:27:16.626Z,47.4
2017-07-24T12:28:18.039Z,46.8
2017-07-24T12:29:19.477Z,46.6
2017-07-24T12:30:20.893Z,46.9
2017-07-24T12:31:22.290Z,46.9
2017-07-24T12:32:23.710Z,47.3
2017-07-24T12:33:25.130Z,47.5
2017-07-24T12:34:26.579Z,46.8
2017-07-24T12:35:27.970Z,46.7
2017-07-24T12:36:29.392Z,47.5
2017-07-24T12:37:30.795Z,46.7
2017-07-24T12:38:32.198Z,46.0
2017-07-24T12:39:33.607Z,45.7
2017-07-24T12:40:35.012Z,46.4
2017-07-24T12:41:36.419Z,45.8
2017-07-24T12:42:37.833Z,46.2
2017-07-24T12:43:39.257Z,46.2
2017-07-24T12:44:40.634Z,46.2
2017-07-24T12:45:42.070Z,46.2
2017-07-24T12:46:43.474Z,46.4
2017-07-24T12:47:44.896Z,46.3
2017-07-24T12:48:46.304Z,46.5
2017-07-24T12:49:47.695Z,46.3
2017-07-24T12:50:49.085Z,45.9
2017-07-24T12:51:50.573Z,46.3
2017-07-24T12:52:51.991Z,46.4
2017-07-24T12:53:53.376Z,46.0
2017-07-24T12:54:54.768Z,46.4
2017-07-24T12:55:56.153Z,46.2
2017-07-24T12:56:57.581Z,46.0
2017-07-24T12:57:59.063Z,45.9
2017-07-24T12:59:00.558Z,46.4
2017-07-24T13:00:01.993Z,46.1
2017-07-24T13:01:03.385Z,46.3
2017-07-24T13:02:04.810Z,46.2
2017-07-24T13:03:06.201Z,46.4
2017-07-24T13:04:07.600Z,45.8
2017-07-24T13:05:09.047Z,46.1
2017-07-24T13:06:10.443Z,46.3
2017-07-24T13:07:11.848Z,45.9
2017-07-24T13:08:13.296Z,46.3
2017-07-24T13:09:14.697Z,46.2
2017-07-24T13:10:16.094Z,46.4
2017-07-24T13:11:17.579Z,46.3
2017-07-24T13:12:18.995Z,46.0
2017-07-24T13:13:20.388Z,45.8
2017-07-24T13:14:21.779Z,45.8
2017-07-24T13:15:23.176Z,45.8
2017-07-24T13:16:24.567Z,45.8
2017-07-24T13:17:25.960Z,46.5
2017-07-24T13:18:27.388Z,45.7
2017-07-24T13:19:28.794Z,45.8
2017-07-24T13:20:30.202Z,45.9
2017-07-24T13:21:31.625Z,46.1
2017-07-24T13:22:33.021Z,45.9
2017-07-24T13:23:34.431Z,46.3
2017-07-24T13:24:35.830Z,46.0
2017-07-24T13:25:37.267Z,45.7
2017-07-24T13:26:38.661Z,45.7
2017-07-24T13:27:40.077Z,45.9
2017-07-24T13:28:41.472Z,46.4
2017-07-24T13:29:42.862Z,45.9
2017-07-24T14:08:02.812Z,0.0
2017-07-24T14:09:04.414Z,0.0
2017-07-24T14:14:26.019Z,0.0
2017-07-24T14:15:27.422Z,0.0
2017-07-24T14:16:28.961Z,0.0
2017-07-24T14:17:30.361Z,0.0
2017-07-24T14:18:31.768Z,0.0
2017-07-24T14:19:33.239Z,0.0
2017-07-24T14:20:34.647Z,0.0
2017-07-24T14:21:36.067Z,0.0
2017-07-24T14:22:59.714Z,0.0
2017-07-24T14:24:01.541Z,0.0
2017-07-24T14:25:03.445Z,0.0
2017-07-24T14:26:05.350Z,0.0
2017-07-24T14:29:44.780Z,0.0
2017-07-24T14:32:36.451Z,0.0
2017-07-24T14:33:59.333Z,0.0
2017-07-24T16:24:41.473Z,78.3
2017-07-24T16:25:43.451Z,76.0
2017-07-24T16:27:05.886Z,75.1
2017-07-24T16:28:07.431Z,75.4
2017-07-24T16:29:29.458Z,72.8
2017-07-24T16:30:31.137Z,72.9
2017-07-24T16:31:53.282Z,74.3
2017-07-24T16:32:55.070Z,73.1
2017-07-24T16:34:17.188Z,73.8
2017-07-24T16:35:18.864Z,72.0
2017-07-24T16:36:40.947Z,71.9
2017-07-24T16:37:42.715Z,71.6
2017-07-24T16:39:04.909Z,72.5
2017-07-24T16:40:06.309Z,71.9
2017-07-24T16:41:27.838Z,72.1
2017-07-24T16:42:29.286Z,69.6
2017-07-24T16:43:50.802Z,67.9
2017-07-24T16:44:52.239Z,68.3
2017-07-24T16:46:13.933Z,70.3
2017-07-24T16:47:15.527Z,70.1
2017-07-24T16:48:37.131Z,68.9
2017-07-24T16:49:38.544Z,69.4
2017-07-24T16:51:00.012Z,67.3
2017-07-24T16:52:01.456Z,69.0
2017-07-24T16:53:23.085Z,68.3
2017-07-24T16:54:24.495Z,69.5
2017-07-24T16:55:46.040Z,70.3
2017-07-24T16:56:47.529Z,70.7
2017-07-24T16:58:09.228Z,68.9
2017-07-24T16:59:10.682Z,71.1
2017-07-24T17:00:32.553Z,70.2
2017-07-24T17:01:34.368Z,70.2
2017-07-24T17:02:56.149Z,70.1
2017-07-24T17:03:57.844Z,68.9
2017-07-24T17:05:19.355Z,69.4
2017-07-24T17:06:20.804Z,70.4
2017-07-24T17:07:42.484Z,70.6
2017-07-24T17:08:43.917Z,69.6
2017-07-24T17:10:05.471Z,70.7
2017-07-24T17:11:06.873Z,70.9
2017-07-24T17:12:28.453Z,71.1
2017-07-24T17:13:29.860Z,72.2
2017-07-24T17:14:51.420Z,72.8
2017-07-24T17:15:52.844Z,72.9
2017-07-24T17:17:14.389Z,72.2
2017-07-24T17:18:15.947Z,72.3
2017-07-24T17:19:37.546Z,72.2
2017-07-24T17:20:38.984Z,71.4
2017-07-24T17:22:00.541Z,72.4
2017-07-24T17:23:02.038Z,72.9
2017-07-24T17:24:23.758Z,74.3
2017-07-24T17:25:25.310Z,75.4
2017-07-24T17:26:47.439Z,76.8
2017-07-24T17:27:48.831Z,76.9
2017-07-24T17:29:10.366Z,77.5
2017-07-24T17:30:11.782Z,77.0
2017-07-24T17:31:33.362Z,77.4
2017-07-24T17:32:35.075Z,75.9
2017-07-24T17:33:56.650Z,76.2
2017-07-24T17:34:58.063Z,76.5
2017-07-24T17:36:19.635Z,77.3
2017-07-24T17:37:21.090Z,76.4
2017-07-24T17:38:43.560Z,76.5
2017-07-24T17:39:45.092Z,77.7
2017-07-24T17:41:06.833Z,78.9
2017-07-24T17:42:08.460Z,79.1
2017-07-24T17:43:29.985Z,78.6
2017-07-24T17:44:31.445Z,79.6
2017-07-24T17:45:53.030Z,79.7
2017-07-24T17:46:54.440Z,80.0
2017-07-24T17:48:15.970Z,79.0
2017-07-24T17:49:17.412Z,78.6
2017-07-24T17:50:39.519Z,77.6
2017-07-24T17:51:41.221Z,77.2
2017-07-24T17:53:02.822Z,79.0
2017-07-24T17:54:04.222Z,79.5
2017-07-24T17:55:26.453Z,79.9
2017-07-24T17:56:27.861Z,79.9
2017-07-24T17:57:49.686Z,80.8
2017-07-24T17:58:51.118Z,79.2
2017-07-24T18:00:12.651Z,80.2
2017-07-24T18:01:14.134Z,80.0
2017-07-24T18:02:35.730Z,80.1
2017-07-24T18:03:37.260Z,79.5
2017-07-24T18:04:58.854Z,78.7
2017-07-24T18:06:00.410Z,80.0
2017-07-24T18:07:22.216Z,79.1
2017-07-24T18:08:23.731Z,78.8
2017-07-24T18:09:46.170Z,78.9
2017-07-24T18:10:47.604Z,79.4
2017-07-24T18:12:09.089Z,78.9
2017-07-24T18:13:10.513Z,78.8
2017-07-24T18:14:32.164Z,79.2
2017-07-24T18:15:33.589Z,79.4
2017-07-24T18:16:55.943Z,80.5
2017-07-24T18:17:57.652Z,79.4
2017-07-24T18:19:19.192Z,80.3
2017-07-24T18:20:20.699Z,81.1
2017-07-24T18:21:42.904Z,81.0
2017-07-24T18:22:44.484Z,80.8
2017-07-24T18:24:06.575Z,80.8
2017-07-24T18:25:08.176Z,80.4
2017-07-24T18:26:30.255Z,80.5
2017-07-24T18:27:31.724Z,80.8
2017-07-24T18:28:53.440Z,80.8
2017-07-24T18:29:54.876Z,80.7
2017-07-24T18:31:16.437Z,80.4
2017-07-24T18:32:17.884Z,80.4
2017-07-24T18:33:39.902Z,80.3
2017-07-24T18:34:41.519Z,80.8
2017-07-24T18:36:03.059Z,81.6
2017-07-24T18:37:04.523Z,80.8
2017-07-24T18:38:33.056Z,80.7
2017-07-24T18:39:34.500Z,80.3
2017-07-24T18:40:56.197Z,81.2
2017-07-24T18:41:57.811Z,80.7
2017-07-24T18:43:19.427Z,80.4
2017-07-24T18:44:20.863Z,80.8
2017-07-24T18:45:43.022Z,81.1
2017-07-24T18:46:44.766Z,80.8
2017-07-24T18:48:06.904Z,81.4
2017-07-24T18:49:08.346Z,81.3
2017-07-24T18:50:30.628Z,81.3
2017-07-24T18:51:32.181Z,82.2
2017-07-24T18:52:53.780Z,81.8
2017-07-24T18:53:55.523Z,81.7
2017-07-24T18:55:17.651Z,81.1
2017-07-24T18:56:19.397Z,81.2
2017-07-24T18:57:40.931Z,81.4
2017-07-24T18:58:42.602Z,81.5
2017-07-24T19:00:05.285Z,81.8
2017-07-24T19:01:07.133Z,82.0
2017-07-24T19:02:29.394Z,81.9
2017-07-24T19:03:31.124Z,81.8
2017-07-24T19:04:53.130Z,83.1
2017-07-24T19:05:55.029Z,81.8
2017-07-24T19:07:17.056Z,81.8
2017-07-24T19:08:19.034Z,81.6
2017-07-24T19:09:41.108Z,82.0
2017-07-24T19:10:42.910Z,81.9
2017-07-24T19:12:04.484Z,82.8
2017-07-24T19:13:07.922Z,82.7
2017-07-24T19:14:29.464Z,82.6
2017-07-24T19:15:31.031Z,82.4
2017-07-24T19:16:52.601Z,81.7
2017-07-24T19:17:54.022Z,81.7
2017-07-24T19:19:15.698Z,83.1
2017-07-24T19:20:17.168Z,83.1
2017-07-24T19:21:38.752Z,82.7
2017-07-24T19:22:41.005Z,82.8
2017-07-24T19:24:02.534Z,82.7
2017-07-24T19:25:04.204Z,82.1
2017-07-24T19:26:27.456Z,82.8
2017-07-24T19:27:28.882Z,83.1
2017-07-24T19:28:51.632Z,82.8
2017-07-24T19:29:52.789Z,83.2
2017-07-24T19:31:15.041Z,82.8
2017-07-24T19:32:16.553Z,82.9
2017-07-24T19:33:38.112Z,82.8
2017-07-24T19:34:39.595Z,83.8
2017-07-24T19:36:01.207Z,84.1
2017-07-24T19:37:03.889Z,83.6
2017-07-24T19:38:25.528Z,83.6
2017-07-24T19:39:27.355Z,84.1
2017-07-24T19:40:49.402Z,83.8
2017-07-24T19:41:51.070Z,83.6
2017-07-24T19:43:13.203Z,83.8
2017-07-24T19:44:14.862Z,83.7
2017-07-24T19:45:36.917Z,83.7
2017-07-24T19:46:38.350Z,83.7
2017-07-24T19:47:59.932Z,83.9
2017-07-24T19:49:01.384Z,84.5
2017-07-24T19:50:22.868Z,83.9
2017-07-24T19:51:24.317Z,84.2
2017-07-24T19:52:45.956Z,84.8
2017-07-24T19:53:47.499Z,84.6
2017-07-24T19:55:08.998Z,84.5
2017-07-24T19:56:10.523Z,84.4
2017-07-24T19:57:32.023Z,84.6
2017-07-24T19:58:33.427Z,84.8
2017-07-24T19:59:55.997Z,83.9
2017-07-24T20:00:57.468Z,83.9
2017-07-24T20:02:19.005Z,85.3
2017-07-24T20:03:20.493Z,84.8
2017-07-24T20:04:42.026Z,84.2
2017-07-24T20:05:43.452Z,85.1
2017-07-24T20:07:04.959Z,85.1
2017-07-24T20:08:06.391Z,84.8
2017-07-24T20:09:27.971Z,84.7
2017-07-24T20:10:29.535Z,85.6
2017-07-24T20:11:51.650Z,85.5
2017-07-24T20:12:53.113Z,85.0
2017-07-24T20:14:15.183Z,85.9
2017-07-24T20:15:16.617Z,85.3
2017-07-24T20:16:38.835Z,85.5
2017-07-24T20:17:40.243Z,85.5
2017-07-24T20:19:01.812Z,85.3
2017-07-24T20:20:03.219Z,85.0
2017-07-24T20:21:24.682Z,85.8
2017-07-24T20:22:26.103Z,85.8
2017-07-24T20:23:49.600Z,85.6
2017-07-24T20:24:51.181Z,85.6
2017-07-24T20:26:13.275Z,85.9
2017-07-24T20:27:14.924Z,86.3
2017-07-24T20:28:37.034Z,86.3
2017-07-24T20:29:38.608Z,86.9
2017-07-24T20:31:00.281Z,87.0
2017-07-24T20:32:02.804Z,86.9
2017-07-24T20:33:25.536Z,86.9
2017-07-24T20:34:27.387Z,86.7
2017-07-24T20:35:49.450Z,86.9
2017-07-24T20:36:51.201Z,86.8
2017-07-24T20:38:15.649Z,87.1
